Time;durP1;ratioP1;P1;durP2;ratioP2;P2;SDS_P1;SDS_P2;PMS_P1;PMS_P2;Temp;Humidity;BMP_temperature;BMP_pressure;BME280_temperature;BME280_humidity;BME280_pressure;Samples;Min_cycle;Max_cycle;Signal;HPM_P1;HPM_P2
2023/04/03 00:01:05;;;;;;;15.85;9.20;;;2.60;99.90;;;;;;5090823;28;20052;-51
2023/04/03 00:03:32;;;;;;;12.38;7.38;;;2.50;99.90;;;;;;5099896;28;20054;-52
2023/04/03 00:06:00;;;;;;;12.50;7.32;;;2.60;99.90;;;;;;5093017;28;20157;-51
2023/04/03 00:08:27;;;;;;;12.18;7.30;;;2.60;99.90;;;;;;5093846;28;20072;-52
2023/04/03 00:10:53;;;;;;;10.93;5.82;;;2.60;99.90;;;;;;5093311;28;20244;-50
2023/04/03 00:13:20;;;;;;;15.20;7.78;;;2.60;99.90;;;;;;5094191;28;20044;-52
2023/04/03 00:15:47;;;;;;;14.00;7.60;;;2.60;99.90;;;;;;5094445;28;20410;-53
2023/04/03 00:18:14;;;;;;;11.70;7.25;;;2.60;99.90;;;;;;5093597;28;20156;-50
2023/04/03 00:20:41;;;;;;;12.18;7.07;;;2.60;99.90;;;;;;5092682;28;20052;-51
2023/04/03 00:23:07;;;;;;;11.68;6.82;;;2.70;99.90;;;;;;5093908;28;20071;-52
2023/04/03 00:25:34;;;;;;;11.90;7.13;;;2.60;99.90;;;;;;5093519;28;20400;-52
2023/04/03 00:28:01;;;;;;;11.73;7.00;;;2.70;99.90;;;;;;5093635;28;20092;-51
2023/04/03 00:30:28;;;;;;;11.90;7.07;;;2.70;99.90;;;;;;5091856;28;20081;-48
2023/04/03 00:32:55;;;;;;;12.43;7.20;;;2.70;99.90;;;;;;5075504;28;20044;-53
2023/04/03 00:35:23;;;;;;;12.05;7.10;;;2.70;99.90;;;;;;5099822;28;20442;-52
2023/04/03 00:37:55;;;;;;;11.70;6.97;;;2.80;99.90;;;;;;5093516;28;20043;-50
2023/04/03 00:40:24;;;;;;;12.25;7.28;;;2.80;99.90;;;;;;5091977;28;20044;-51
2023/04/03 00:42:57;;;;;;;10.05;6.43;;;2.80;99.90;;;;;;5092277;28;20047;-52
2023/04/03 00:45:33;;;;;;;13.68;7.45;;;2.80;99.90;;;;;;5094774;28;20523;-51
2023/04/03 00:48:05;;;;;;;14.25;8.23;;;2.80;99.90;;;;;;5092089;28;20081;-50
2023/04/03 00:50:36;;;;;;;11.38;7.43;;;2.80;99.90;;;;;;5093011;28;20047;-51
2023/04/03 00:53:06;;;;;;;11.85;7.40;;;2.80;99.90;;;;;;5096455;28;20385;-50
2023/04/03 00:55:35;;;;;;;13.00;7.40;;;2.80;99.90;;;;;;5093050;28;20036;-51
2023/04/03 00:58:02;;;;;;;16.92;8.60;;;2.80;99.90;;;;;;5092785;28;20071;-50
2023/04/03 01:00:29;;;;;;;13.40;7.57;;;2.80;99.90;;;;;;5092858;28;20064;-51
2023/04/03 01:02:56;;;;;;;;;;;2.80;99.90;;;;;;5073642;28;20161;-50
2023/04/03 01:05:24;;;;;;;8.57;4.97;;;2.90;99.90;;;;;;5091809;28;19930;-51
2023/04/03 01:07:52;;;;;;;9.13;5.90;;;2.90;99.90;;;;;;5073870;28;20089;-50
2023/04/03 01:10:20;;;;;;;12.32;7.30;;;2.90;99.90;;;;;;5091614;28;20097;-51
2023/04/03 01:12:50;;;;;;;11.23;6.85;;;2.90;99.90;;;;;;5072922;28;20051;-50
2023/04/03 01:15:22;;;;;;;12.38;7.25;;;2.80;99.90;;;;;;5071045;28;20067;-51
2023/04/03 01:17:56;;;;;;;13.63;7.78;;;2.90;99.90;;;;;;5080880;28;20130;-50
2023/04/03 01:20:31;;;;;;;13.25;7.32;;;2.90;99.90;;;;;;5089791;28;20040;-52
2023/04/03 01:23:08;;;;;;;13.10;7.70;;;2.80;99.90;;;;;;5081231;28;20500;-51
2023/04/03 01:25:38;;;;;;;12.43;7.25;;;2.90;99.90;;;;;;5054383;28;20144;-50
2023/04/03 01:28:08;;;;;;;11.95;7.43;;;2.90;99.90;;;;;;5081953;28;20067;-50
2023/04/03 01:30:46;;;;;;;13.48;7.57;;;2.90;99.90;;;;;;5073799;28;20093;-51
2023/04/03 01:33:13;;;;;;;12.82;7.82;;;2.90;99.90;;;;;;5091063;28;20530;-50
2023/04/03 01:35:40;;;;;;;16.45;8.63;;;2.90;99.90;;;;;;5074287;28;20040;-50
2023/04/03 01:38:07;;;;;;;10.30;6.50;;;2.90;99.90;;;;;;5077804;28;20515;-50
2023/04/03 01:40:34;;;;;;;16.63;8.50;;;2.90;99.90;;;;;;5073090;28;20044;-50
2023/04/03 01:43:02;;;;;;;15.55;8.65;;;2.90;99.90;;;;;;5075033;28;20139;-52
2023/04/03 01:45:29;;;;;;;15.02;9.07;;;2.90;99.90;;;;;;5092133;28;20407;-53
2023/04/03 01:47:56;;;;;;;17.55;9.82;;;2.90;99.90;;;;;;5073944;28;20570;-51
2023/04/03 01:50:24;;;;;;;17.75;9.32;;;2.90;99.90;;;;;;5072840;28;20621;-51
2023/04/03 01:52:52;;;;;;;17.30;8.82;;;2.90;99.90;;;;;;5073750;28;20079;-51
2023/04/03 01:55:18;;;;;;;15.43;8.40;;;2.90;99.90;;;;;;5074050;28;20040;-52
2023/04/03 01:57:45;;;;;;;15.43;8.88;;;3.00;99.90;;;;;;5073279;28;20477;-52
2023/04/03 02:00:12;;;;;;;16.83;9.30;;;3.00;99.90;;;;;;5075490;28;20052;-50
2023/04/03 02:02:40;;;;;;;16.08;9.10;;;3.00;99.90;;;;;;5090596;28;20836;-50
2023/04/03 02:05:07;;;;;;;17.95;9.88;;;3.00;99.90;;;;;;5090335;28;20044;-50
2023/04/03 02:07:34;;;;;;;16.63;9.32;;;3.00;99.90;;;;;;5090375;28;20101;-54
2023/04/03 02:10:02;;;;;;;14.90;8.23;;;3.00;99.90;;;;;;5075469;28;20097;-50
2023/04/03 02:12:28;;;;;;;;;;;3.00;99.90;;;;;;5091026;28;20040;-50
2023/04/03 02:14:55;;;;;;;;;;;3.00;99.90;;;;;;5074932;28;20326;-50
2023/04/03 02:17:22;;;;;;;;;;;3.00;99.90;;;;;;5073968;28;19942;-52
2023/04/03 02:19:48;;;;;;;;;;;3.00;99.90;;;;;;5089568;28;19920;-55
2023/04/03 02:22:15;;;;;;;;;;;3.00;99.90;;;;;;5090759;28;19920;-50
2023/04/03 02:24:42;;;;;;;;;;;3.10;99.90;;;;;;5091182;28;19920;-52
2023/04/03 02:27:09;;;;;;;;;;;3.10;99.90;;;;;;5091966;28;20550;-51
2023/04/03 02:29:35;;;;;;;;;;;3.10;99.90;;;;;;5090194;28;19965;-53
2023/04/03 02:32:04;;;;;;;;;;;3.10;99.90;;;;;;5090866;28;19946;-51
2023/04/03 02:34:31;;;;;;;;;;;3.10;99.90;;;;;;5091513;28;20427;-51
2023/04/03 02:37:00;;;;;;;;;;;3.10;99.90;;;;;;5091703;28;20439;-50
2023/04/03 02:39:27;;;;;;;;;;;3.10;99.90;;;;;;5073059;28;19920;-50
2023/04/03 02:41:54;;;;;;;;;;;3.10;99.90;;;;;;5071976;28;19924;-52
2023/04/03 02:44:24;;;;;;;;;;;3.10;99.90;;;;;;5073895;28;20058;-50
2023/04/03 02:46:52;;;;;;;;;;;3.10;99.90;;;;;;5073199;28;19920;-52
2023/04/03 02:49:18;;;;;;;;;;;3.10;99.90;;;;;;5073306;28;19920;-51
2023/04/03 02:51:45;;;;;;;;;;;3.10;99.90;;;;;;5072001;28;19926;-50
2023/04/03 02:54:12;;;;;;;;;;;3.10;99.90;;;;;;5090647;28;19926;-51
2023/04/03 02:56:43;;;;;;;;;;;3.00;99.90;;;;;;5088325;28;19924;-50
2023/04/03 02:59:10;;;;;;;;;;;3.10;99.90;;;;;;5091268;28;19920;-50
2023/04/03 03:01:38;;;;;;;;;;;3.10;99.90;;;;;;5072875;28;20330;-51
2023/04/03 03:04:05;;;;;;;;;;;3.00;99.90;;;;;;5071662;28;19920;-51
2023/04/03 03:06:32;;;;;;;;;;;3.10;99.90;;;;;;5089278;28;19920;-50
2023/04/03 03:08:59;;;;;;;;;;;3.10;99.90;;;;;;5091129;28;19969;-53
2023/04/03 03:11:26;;;;;;;;;;;3.10;99.90;;;;;;5091608;28;19920;-54
2023/04/03 03:13:52;;;;;;;;;;;3.10;99.90;;;;;;5091311;28;20338;-51
2023/04/03 03:16:19;;;;;;;;;;;3.10;99.90;;;;;;5080668;28;19965;-50
2023/04/03 03:18:46;;;;;;;;;;;3.00;99.90;;;;;;5091172;28;19952;-52
2023/04/03 03:21:13;;;;;;;;;;;3.00;99.90;;;;;;5090017;28;20014;-51
2023/04/03 03:23:40;;;;;;;;;;;3.00;99.90;;;;;;5081908;28;19950;-51
2023/04/03 03:26:08;;;;;;;;;;;3.00;99.90;;;;;;5082485;28;19924;-50
2023/04/03 03:28:36;;;;;;;;;;;3.00;99.90;;;;;;5080316;28;19969;-52
2023/04/03 03:31:04;;;;;;;;;;;3.00;99.90;;;;;;5061954;28;19936;-54
2023/04/03 03:33:32;;;;;;;;;;;3.00;99.90;;;;;;5069273;28;20396;-50
2023/04/03 03:35:59;;;;;;;;;;;3.00;99.90;;;;;;5084361;28;19971;-50
2023/04/03 03:38:26;;;;;;;;;;;3.00;99.90;;;;;;5064913;28;20014;-50
2023/04/03 03:40:53;;;;;;;;;;;3.00;99.90;;;;;;5070621;28;20376;-51
2023/04/03 03:43:21;;;;;;;;;;;3.00;99.90;;;;;;5074356;28;19931;-53
2023/04/03 03:45:51;;;;;;;;;;;2.90;99.90;;;;;;5068023;28;20001;-52
2023/04/03 03:48:19;;;;;;;;;;;2.90;99.90;;;;;;5068056;28;20015;-50
2023/04/03 03:50:46;;;;;;;;;;;2.90;99.90;;;;;;5069274;28;19920;-49
2023/04/03 03:53:12;;;;;;;;;;;2.90;99.90;;;;;;5085288;28;19928;-51
2023/04/03 03:55:40;;;;;;;;;;;2.80;99.90;;;;;;5065733;28;20257;-50
2023/04/03 03:58:06;;;;;;;;;;;2.80;99.90;;;;;;5070341;28;19920;-52
2023/04/03 04:00:34;;;;;;;;;;;2.90;99.90;;;;;;5090577;28;19920;-54
2023/04/03 04:03:01;;;;;;;;;;;2.90;99.90;;;;;;5069598;28;20444;-50
2023/04/03 04:05:30;;;;;;;;;;;2.80;99.90;;;;;;5067865;28;19924;-52
2023/04/03 04:07:58;;;;;;;;;;;2.80;99.90;;;;;;5072066;28;19947;-52
2023/04/03 04:10:25;;;;;;;;;;;2.80;99.90;;;;;;5073494;28;19924;-50
2023/04/03 04:12:53;;;;;;;;;;;2.80;99.90;;;;;;5067330;28;19923;-50
2023/04/03 04:15:23;;;;;;;;;;;2.80;99.90;;;;;;5073921;28;19920;-50
2023/04/03 04:17:50;;;;;;;;;;;2.80;99.90;;;;;;5082978;28;19926;-53
2023/04/03 04:20:17;;;;;;;;;;;2.80;99.90;;;;;;5065721;28;20300;-51
2023/04/03 04:22:46;;;;;;;;;;;2.80;99.90;;;;;;5070778;28;20006;-50
2023/04/03 04:25:13;;;;;;;;;;;2.80;99.90;;;;;;5072103;28;19943;-51
2023/04/03 04:27:40;;;;;;;;;;;2.80;99.90;;;;;;5082326;28;19926;-51
2023/04/03 04:30:08;;;;;;;;;;;2.80;99.90;;;;;;5068904;28;19973;-50
2023/04/03 04:32:35;;;;;;;;;;;2.80;99.90;;;;;;5067975;28;19928;-50
2023/04/03 04:35:03;;;;;;;;;;;2.80;99.90;;;;;;5075883;28;19928;-52
2023/04/03 04:37:32;;;;;;;;;;;2.80;99.90;;;;;;5075987;28;20219;-50
2023/04/03 04:39:59;;;;;;;;;;;2.70;99.90;;;;;;5063361;28;19920;-50
2023/04/03 04:42:26;;;;;;;;;;;2.70;99.90;;;;;;5072704;28;19955;-51
2023/04/03 04:44:52;;;;;;;;;;;2.70;99.90;;;;;;5092976;28;19934;-50
2023/04/03 04:47:19;;;;;;;;;;;2.70;99.90;;;;;;5079439;28;19928;-51
2023/04/03 04:49:47;;;;;;;;;;;2.70;99.90;;;;;;5088852;28;20304;-50
2023/04/03 04:52:14;;;;;;;;;;;2.70;99.90;;;;;;5075197;28;19920;-50
2023/04/03 04:54:41;;;;;;;;;;;2.70;99.90;;;;;;5083596;28;20023;-55
2023/04/03 04:57:08;;;;;;;;;;;2.70;99.90;;;;;;5094965;28;19920;-51
2023/04/03 04:59:35;;;;;;;;;;;2.70;99.90;;;;;;5074786;28;19924;-51
2023/04/03 05:02:02;;;;;;;;;;;2.80;99.90;;;;;;5072754;28;19924;-51
2023/04/03 05:04:30;;;;;;;;;;;2.80;99.90;;;;;;5090179;28;19970;-51
2023/04/03 05:07:03;;;;;;;;;;;2.80;99.90;;;;;;5071477;28;19926;-52
2023/04/03 05:09:33;;;;;;;;;;;2.70;99.90;;;;;;5092021;28;19955;-51
2023/04/03 05:12:00;;;;;;;;;;;2.80;99.90;;;;;;5091247;28;20362;-52
2023/04/03 05:14:31;;;;;;;;;;;2.80;99.90;;;;;;5075241;28;19928;-52
2023/04/03 05:17:02;;;;;;;;;;;2.70;99.90;;;;;;5092235;28;19952;-51
2023/04/03 05:19:32;;;;;;;;;;;2.70;99.90;;;;;;5087088;28;19920;-50
2023/04/03 05:21:59;;;;;;;;;;;2.70;99.90;;;;;;5069577;28;19924;-51
2023/04/03 05:24:28;;;;;;;;;;;2.70;99.90;;;;;;5070410;28;20396;-52
2023/04/03 05:26:55;;;;;;;;;;;2.80;99.90;;;;;;5089038;28;20269;-50
2023/04/03 05:29:22;;;;;;;;;;;2.70;99.90;;;;;;5088500;28;19963;-50
2023/04/03 05:31:50;;;;;;;;;;;2.70;99.90;;;;;;5062339;28;19920;-50
2023/04/03 05:34:17;;;;;;;;;;;2.80;99.90;;;;;;5084742;28;20277;-50
2023/04/03 05:36:46;;;;;;;;;;;2.70;99.90;;;;;;5068923;28;19959;-51
2023/04/03 05:39:14;;;;;;;;;;;2.80;99.90;;;;;;5070431;28;19932;-50
2023/04/03 05:41:43;;;;;;;;;;;2.70;99.90;;;;;;5092267;28;19930;-51
2023/04/03 05:44:10;;;;;;;;;;;2.80;99.90;;;;;;5065849;28;21009;-51
2023/04/03 05:46:37;;;;;;;;;;;2.80;99.90;;;;;;5068732;28;19924;-50
2023/04/03 05:49:07;;;;;;;;;;;2.80;99.90;;;;;;5070214;28;20402;-52
2023/04/03 05:52:00;;;;;;;;;;;2.90;99.90;;;;;;5097016;22;19924;-54
2023/04/03 05:54:30;;;;;;;;;;;2.80;99.90;;;;;;5098429;28;19920;-51
2023/04/03 05:57:04;;;;;;;;;;;2.90;99.90;;;;;;5074547;28;19927;-53
2023/04/03 05:59:30;;;;;;;;;;;2.90;99.90;;;;;;5085329;28;19924;-53
2023/04/03 06:01:59;;;;;;;;;;;2.90;99.90;;;;;;5093821;28;19949;-51
2023/04/03 06:04:26;;;;;;;;;;;2.90;99.90;;;;;;5103604;28;19968;-51
2023/04/03 06:06:54;;;;;;;;;;;2.90;99.90;;;;;;5087258;28;19927;-54
2023/04/03 06:09:23;;;;;;;;;;;2.90;99.90;;;;;;5102841;28;19920;-50
2023/04/03 06:11:50;;;;;;;;;;;2.90;99.90;;;;;;5094401;28;19958;-52
2023/04/03 06:14:16;;;;;;;;;;;3.00;99.90;;;;;;5084607;28;20337;-50
2023/04/03 06:16:44;;;;;;;;;;;3.00;99.90;;;;;;5093969;28;19919;-51
2023/04/03 06:19:11;;;;;;;;;;;3.00;99.90;;;;;;5111640;28;19919;-53
2023/04/03 06:21:42;;;;;;;;;;;3.00;99.90;;;;;;5064820;28;19921;-50
2023/04/03 06:24:09;;;;;;;;;;;3.00;99.90;;;;;;5103115;28;20448;-50
2023/04/03 06:26:36;;;;;;;;;;;2.90;99.90;;;;;;5112635;28;20422;-54
2023/04/03 06:29:02;;;;;;;;;;;3.00;99.90;;;;;;5112030;28;19919;-50
2023/04/03 06:31:29;;;;;;;;;;;3.00;99.90;;;;;;5101669;28;20010;-50
2023/04/03 06:33:56;;;;;;;;;;;3.00;99.90;;;;;;5110652;28;20419;-52
2023/04/03 06:36:22;;;;;;;;;;;3.00;99.90;;;;;;5108716;28;19959;-50
2023/04/03 06:38:49;;;;;;;;;;;3.00;99.90;;;;;;5110850;28;20014;-51
2023/04/03 06:41:17;;;;;;;;;;;3.00;99.90;;;;;;5107353;28;20743;-50
2023/04/03 06:43:44;;;;;;;;;;;3.00;99.90;;;;;;5103233;28;19976;-51
2023/04/03 06:46:13;;;;;;;;;;;3.00;99.90;;;;;;5103614;28;19920;-50
2023/04/03 06:48:40;;;;;;;;;;;3.00;99.90;;;;;;5111746;28;20014;-50
2023/04/03 06:51:18;;;;;;;;;;;3.00;99.90;;;;;;5105773;28;19960;-54
2023/04/03 06:53:45;;;;;;;;;;;3.00;99.90;;;;;;5107489;28;20462;-51
2023/04/03 06:56:12;;;;;;;;;;;3.10;99.90;;;;;;5110733;28;19945;-51
2023/04/03 06:58:39;;;;;;;;;;;3.10;99.90;;;;;;5111784;28;19920;-51
2023/04/03 07:01:06;;;;;;;;;;;3.10;99.90;;;;;;5108977;28;19961;-52
2023/04/03 07:03:32;;;;;;;;;;;3.10;99.90;;;;;;5111042;28;19919;-50
2023/04/03 07:06:01;;;;;;;;;;;3.10;99.90;;;;;;5104601;28;19947;-51
2023/04/03 07:08:28;;;;;;;;;;;3.10;99.90;;;;;;5111826;28;19920;-54
2023/04/03 07:10:55;;;;;;;;;;;3.20;99.90;;;;;;5106492;28;20356;-52
2023/04/03 07:13:21;;;;;;;;;;;3.20;99.90;;;;;;5116312;28;19920;-51
2023/04/03 07:15:48;;;;;;;;;;;3.20;99.90;;;;;;5115317;28;20006;-54
2023/04/03 07:18:16;;;;;;;;;;;3.20;99.90;;;;;;5116092;28;19938;-50
2023/04/03 07:20:43;;;;;;;;;;;3.20;99.90;;;;;;5113786;28;19924;-52
2023/04/03 07:23:10;;;;;;;;;;;3.20;99.90;;;;;;5088729;28;20010;-51
2023/04/03 07:25:41;;;;;;;;;;;3.20;99.90;;;;;;5115810;28;20038;-51
2023/04/03 07:28:08;;;;;;;;;;;3.20;99.90;;;;;;5107903;28;19928;-54
2023/04/03 07:30:42;;;;;;;;;;;3.20;99.90;;;;;;5115027;28;19963;-51
2023/04/03 07:33:08;;;;;;;;;;;3.20;99.90;;;;;;5115392;28;19920;-50
2023/04/03 07:35:35;;;;;;;;;;;3.30;99.90;;;;;;5103403;28;19974;-56
2023/04/03 07:38:02;;;;;;;;;;;3.30;99.90;;;;;;5110040;28;19965;-53
2023/04/03 07:40:29;;;;;;;;;;;3.30;99.90;;;;;;5114495;28;19974;-52
2023/04/03 07:42:56;;;;;;;;;;;3.30;99.90;;;;;;5114077;28;20391;-52
2023/04/03 07:45:23;;;;;;;;;;;3.30;99.90;;;;;;5106973;28;19949;-54
2023/04/03 07:47:50;;;;;;;;;;;3.40;99.90;;;;;;5115302;28;19924;-52
2023/04/03 07:50:17;;;;;;;;;;;3.40;99.90;;;;;;5114174;28;19920;-52
2023/04/03 07:52:45;;;;;;;;;;;3.50;99.90;;;;;;5107375;28;20030;-50
2023/04/03 07:55:12;;;;;;;;;;;3.50;99.90;;;;;;5108705;28;19981;-50
2023/04/03 07:57:38;;;;;;;;;;;3.60;99.90;;;;;;5115013;28;20421;-50
2023/04/03 08:00:05;;;;;;;;;;;3.70;99.90;;;;;;5113259;28;19920;-51
2023/04/03 08:02:37;;;;;;;;;;;3.60;99.90;;;;;;5100870;28;19976;-54
2023/04/03 08:05:04;;;;;;;;;;;3.80;99.90;;;;;;5113609;28;19931;-53
2023/04/03 08:07:31;;;;;;;;;;;3.90;99.90;;;;;;5115063;28;19920;-51
2023/04/03 08:09:58;;;;;;;;;;;4.00;99.90;;;;;;5107990;28;19967;-51
2023/04/03 08:12:25;;;;;;;;;;;4.00;99.90;;;;;;5114859;28;20494;-54
2023/04/03 08:14:51;;;;;;;;;;;4.10;99.90;;;;;;5114834;28;19942;-52
2023/04/03 08:17:18;;;;;;;;;;;4.10;99.90;;;;;;5114975;28;19954;-51
2023/04/03 08:19:44;;;;;;;;;;;4.30;99.90;;;;;;5106928;28;19920;-54
2023/04/03 08:22:11;;;;;;;;;;;4.40;99.90;;;;;;5114206;28;19919;-51
2023/04/03 08:24:38;;;;;;;;;;;4.50;99.90;;;;;;5114871;28;19931;-51
2023/04/03 08:27:11;;;;;;;;;;;4.50;99.90;;;;;;5114816;28;19992;-50
2023/04/03 08:29:37;;;;;;;;;;;4.60;99.90;;;;;;5092518;28;19924;-52
2023/04/03 08:32:04;;;;;;;;;;;4.60;99.90;;;;;;5114249;28;19920;-51
2023/04/03 08:34:34;;;;;;;;;;;4.60;99.90;;;;;;5114543;28;19919;-51
2023/04/03 08:37:01;;;;;;;;;;;4.60;99.90;;;;;;5109989;28;20323;-51
2023/04/03 08:39:28;;;;;;;;;;;4.60;99.90;;;;;;5110717;28;19919;-51
2023/04/03 08:41:57;;;;;;;;;;;4.50;99.90;;;;;;5114412;28;19970;-52
2023/04/03 08:44:24;;;;;;;;;;;4.40;99.90;;;;;;5114131;28;19920;-50
2023/04/03 08:46:50;;;;;;;;;;;4.40;99.90;;;;;;5107349;28;20424;-53
2023/04/03 08:49:22;;;;;;;;;;;4.40;99.90;;;;;;5102011;28;19973;-51
2023/04/03 08:51:50;;;;;;;;;;;4.40;99.90;;;;;;5114282;28;19919;-50
2023/04/03 08:54:22;;;;;;;;;;;4.40;99.90;;;;;;5114320;28;20341;-49
2023/04/03 08:56:48;;;;;;;;;;;4.50;99.90;;;;;;5109652;27;20467;-51
2023/04/03 08:59:19;;;;;;;;;;;4.40;99.90;;;;;;5113600;28;20349;-53
2023/04/03 09:01:46;;;;;;;;;;;4.60;99.90;;;;;;5113535;28;19955;-52
2023/04/03 09:04:15;;;;;;;;;;;4.80;99.90;;;;;;5114112;28;20006;-50
2023/04/03 09:06:46;;;;;;;;;;;4.90;99.90;;;;;;5103967;28;19943;-50
2023/04/03 09:09:21;;;;;;;;;;;5.00;99.90;;;;;;5113530;28;19923;-53
2023/04/03 09:11:55;;;;;;;;;;;5.10;99.90;;;;;;5104094;28;19967;-50
2023/04/03 09:14:27;;;;;;;;;;;5.10;99.90;;;;;;5113880;27;19955;-52
2023/04/03 09:16:56;;;;;;;;;;;5.30;99.90;;;;;;5120892;27;19959;-50
2023/04/03 09:19:32;;;;;;;;;;;5.40;99.90;;;;;;5114569;27;20261;-51
2023/04/03 09:22:02;;;;;;;;;;;5.40;99.90;;;;;;5106193;27;19920;-53
2023/04/03 09:24:31;;;;;;;;;;;5.50;99.90;;;;;;5113638;28;20013;-53
2023/04/03 09:27:02;;;;;;;;;;;5.60;99.90;;;;;;5113468;28;19923;-52
2023/04/03 09:29:28;;;;;;;;;;;5.70;99.90;;;;;;5110929;28;19920;-53
2023/04/03 09:31:57;;;;;;;;;;;5.90;99.90;;;;;;5113563;28;19972;-51
2023/04/03 09:34:30;;;;;;;;;;;6.00;99.90;;;;;;5107624;28;20002;-52
2023/04/03 09:36:58;;;;;;;;;;;5.90;99.90;;;;;;5113604;28;19970;-50
2023/04/03 09:39:27;;;;;;;;;;;5.90;99.90;;;;;;5112600;28;19968;-52
2023/04/03 09:42:01;;;;;;;;;;;5.90;99.90;;;;;;5112996;28;19973;-51
2023/04/03 09:44:31;;;;;;;;;;;5.90;99.90;;;;;;5108944;28;19919;-52
2023/04/03 09:46:58;;;;;;;;;;;6.10;99.90;;;;;;5113147;28;19920;-52
2023/04/03 09:49:25;;;;;;;;;;;6.20;99.90;;;;;;5112253;28;19924;-50
2023/04/03 09:51:53;;;;;;;;;;;6.40;99.90;;;;;;5105457;28;19919;-52
2023/04/03 09:54:37;;;;;;;;;;;6.60;99.90;;;;;;5113010;28;20240;-51
2023/04/03 09:57:08;;;;;;;;;;;6.70;99.90;;;;;;5112833;28;19993;-50
2023/04/03 09:59:37;;;;;;;;;;;6.60;99.90;;;;;;5107203;28;20018;-54
2023/04/03 10:02:21;;;;;;;;;;;6.80;99.90;;;;;;5112928;28;19920;-53
2023/04/03 10:04:48;;;;;;;;;;;7.00;99.90;;;;;;5093748;28;19923;-53
2023/04/03 10:07:36;;;;;;;;;;;7.00;99.90;;;;;;5109344;28;20253;-50
2023/04/03 10:10:17;;;;;;;;;;;6.60;99.90;;;;;;5108672;28;19923;-52
2023/04/03 10:12:44;;;;;;;;;;;6.40;99.90;;;;;;5112769;28;19920;-50
2023/04/03 10:15:15;;;;;;;;;;;6.20;99.90;;;;;;5113060;28;19919;-50
2023/04/03 10:17:48;;;;;;;;;;;6.10;99.90;;;;;;5109195;27;19920;-49
2023/04/03 10:20:21;;;;;;;;;;;6.10;99.90;;;;;;5111957;28;19919;-51
2023/04/03 10:23:02;;;;;;;;;;;6.10;99.90;;;;;;5111985;28;19945;-50
2023/04/03 10:25:36;;;;;;;;;;;6.00;99.90;;;;;;5094508;28;19920;-56
2023/04/03 10:28:06;;;;;;;;;;;6.00;99.90;;;;;;5099836;28;19927;-51
2023/04/03 10:30:48;;;;;;;;;;;6.00;99.90;;;;;;5112154;28;19931;-54
2023/04/03 10:33:27;;;;;;;;;;;6.10;99.90;;;;;;5111954;28;19919;-53
2023/04/03 10:35:54;;;;;;;;;;;6.10;99.90;;;;;;5101868;28;20380;-52
2023/04/03 10:38:39;;;;;;;;;;;6.10;99.90;;;;;;5111633;28;19945;-51
2023/04/03 10:41:17;;;;;;;;;;;6.00;99.90;;;;;;5111898;28;20364;-51
2023/04/03 10:43:43;;;;;;;;;;;6.00;99.90;;;;;;5109969;28;19923;-50
2023/04/03 10:46:19;;;;;;;;;;;5.80;99.90;;;;;;5111977;28;20418;-52
2023/04/03 10:49:05;;;;;;;;;;;5.70;99.90;;;;;;5111613;28;20014;-50
2023/04/03 10:51:31;;;;;;;;;;;5.60;99.90;;;;;;5111784;28;19920;-53
2023/04/03 10:53:58;;;;;;;;;;;5.70;99.90;;;;;;5094525;28;20387;-51
2023/04/03 10:56:31;;;;;;;;;;;5.70;99.90;;;;;;5108631;28;19923;-51
2023/04/03 10:59:00;;;;;;;;;;;5.70;99.90;;;;;;5111938;28;19923;-51
2023/04/03 11:01:32;;;;;;;;;;;5.70;99.90;;;;;;5112250;28;19924;-51
2023/04/03 11:04:00;;;;;;;;;;;5.70;99.90;;;;;;5110230;28;19920;-51
2023/04/03 11:06:43;;;;;;;;;;;5.80;99.90;;;;;;5111823;28;19923;-51
2023/04/03 11:09:16;;;;;;;;;;;5.80;99.90;;;;;;5108252;28;19951;-51
2023/04/03 11:11:44;;;;;;;;;;;5.80;99.90;;;;;;5111754;28;19962;-51
2023/04/03 11:14:16;;;;;;;;;;;5.90;99.90;;;;;;5111306;28;20295;-53
2023/04/03 11:16:45;;;;;;;;;;;5.90;99.90;;;;;;5112093;28;20018;-51
2023/04/03 11:19:21;;;;;;;;;;;5.90;99.90;;;;;;5107280;28;20384;-51
2023/04/03 11:21:58;;;;;;;;;;;5.80;99.90;;;;;;5102083;28;20388;-51
2023/04/03 11:24:30;;;;;;;;;;;5.80;99.90;;;;;;5098332;28;19920;-50
2023/04/03 11:26:59;;;;;;;;;;;5.80;99.90;;;;;;5111138;28;19927;-50
2023/04/03 11:29:29;;;;;;;;;;;5.80;99.90;;;;;;5111556;28;20387;-54
2023/04/03 11:32:02;;;;;;;;;;;5.80;99.90;;;;;;5104299;28;19919;-51
2023/04/03 11:34:36;;;;;;;;;;;5.90;99.90;;;;;;5111559;28;19966;-51
2023/04/03 11:37:04;;;;;;;;;;;6.00;99.90;;;;;;5111478;28;20014;-52
2023/04/03 11:39:33;;;;;;;;;;;5.90;99.90;;;;;;5111231;28;20268;-52
2023/04/03 11:42:14;;;;;;;;;;;5.90;99.90;;;;;;5102495;28;19919;-55
2023/04/03 11:44:41;;;;;;;;;;;6.00;99.90;;;;;;5111559;28;19919;-53
2023/04/03 11:47:08;;;;;;;;;;;5.90;99.90;;;;;;5112182;28;19970;-52
2023/04/03 11:52:39;;;;;;;;;;;5.70;99.90;;;;;;5044703;28;19943;-56
2023/04/03 11:55:36;;;;;;;;;;;5.60;99.90;;;;;;5049249;28;19921;-57
2023/04/03 11:58:11;;;;;;;;;;;5.60;99.90;;;;;;5046022;28;20397;-54
2023/04/03 12:00:47;;;;;;;;;;;5.60;99.90;;;;;;5058366;28;19987;-58
2023/04/03 12:03:23;;;;;;;;;;;5.50;99.90;;;;;;5074779;28;20396;-59
2023/04/03 12:05:50;;;;;;;;;;;5.40;99.90;;;;;;5071888;28;19920;-54
2023/04/03 12:08:32;;;;;;;;;;;5.40;99.90;;;;;;5068237;28;19966;-59
2023/04/03 12:11:08;;;;;;;;;;;5.40;99.90;;;;;;5074352;28;19928;-56
2023/04/03 12:13:35;;;;;;;;;;;5.40;99.90;;;;;;5074288;28;19924;-57
2023/04/03 12:16:03;;;;;;;;;;;5.40;99.90;;;;;;5073385;28;19921;-57
2023/04/03 12:18:45;;;;;;;;;;;5.40;99.90;;;;;;5074313;28;19998;-57
2023/04/03 12:21:13;;;;;;;;;;;5.30;99.90;;;;;;5074076;28;19966;-57
2023/04/03 12:23:58;;;;;;;;;;;5.30;99.90;;;;;;5073561;28;19975;-58
2023/04/03 12:26:27;;;;;;;;;;;5.30;99.90;;;;;;5073957;28;20031;-56
2023/04/03 12:29:23;;;;;;;;;;;5.40;99.90;;;;;;5073842;28;19924;-56
2023/04/03 12:31:52;;;;;;;;;;;5.30;99.90;;;;;;5070607;28;20388;-54
2023/04/03 12:34:38;;;;;;;;;;;5.40;99.90;;;;;;5054196;28;19960;-55
2023/04/03 12:37:16;;;;;;;;;;;5.60;99.90;;;;;;5054067;28;19927;-56
2023/04/03 12:40:01;;;;;;;;;;;5.80;99.90;;;;;;5062775;28;19924;-58
2023/04/03 12:42:41;;;;;;;;;;;5.80;99.90;;;;;;5071380;28;19921;-57
2023/04/03 12:45:14;;;;;;;;;;;5.80;99.90;;;;;;5074022;28;20344;-56
2023/04/03 12:47:41;;;;;;;;;;;5.90;99.90;;;;;;5073513;28;19925;-57
2023/04/03 12:50:21;;;;;;;;;;;5.80;99.90;;;;;;5072541;28;19920;-55
2023/04/03 12:52:51;;;;;;;;;;;5.70;99.90;;;;;;5073796;28;19920;-58
2023/04/03 12:55:20;;;;;;;;;;;5.70;99.90;;;;;;5074000;28;20327;-57
2023/04/03 12:57:47;;;;;;;;;;;5.60;99.90;;;;;;5073057;28;19924;-56
2023/04/03 13:00:28;;;;;;;;;;;5.60;99.90;;;;;;5071279;28;19966;-56
2023/04/03 13:02:55;;;;;;;;;;;5.60;99.90;;;;;;5073246;28;19978;-54
2023/04/03 13:05:22;;;;;;;;;;;5.80;99.90;;;;;;5073242;28;19943;-55
2023/04/03 13:08:09;;;;;;;;;;;5.60;99.90;;;;;;5072408;28;19924;-59
2023/04/03 13:10:46;;;;;;;;;;;5.50;99.90;;;;;;5064913;28;19960;-58
2023/04/03 13:13:14;;;;;;;;;;;5.40;99.90;;;;;;5071175;28;19920;-55
2023/04/03 13:15:43;;;;;;;;;;;5.30;99.90;;;;;;5072282;28;19967;-55
2023/04/03 13:18:21;;;;;;;;;;;5.10;99.90;;;;;;5072286;28;19921;-55
2023/04/03 13:20:48;;;;;;;;;;;5.00;99.90;;;;;;5071268;28;19920;-59
2023/04/03 13:23:17;;;;;;;;;;;4.90;99.90;;;;;;5066406;28;19920;-56
2023/04/03 13:25:45;;;;;;;;;;;4.90;99.90;;;;;;5072647;28;19924;-57
2023/04/03 13:28:14;;;;;;;;;;;4.80;99.90;;;;;;5072060;28;19982;-57
2023/04/03 13:30:53;;;;;;;;;;;4.80;99.90;;;;;;5065828;28;20365;-57
2023/04/03 13:33:22;;;;;;;;;;;4.80;99.90;;;;;;5062449;28;19970;-58
2023/04/03 13:35:54;;;;;;;;;;;4.70;99.90;;;;;;5071728;28;19952;-57
2023/04/03 13:38:23;;;;;;;;;;;4.80;99.90;;;;;;5072419;28;19982;-58
2023/04/03 13:40:57;;;;;;;;;;;4.90;99.90;;;;;;5069892;28;19925;-57
2023/04/03 13:43:25;;;;;;;;;;;4.90;99.90;;;;;;5072702;28;20333;-57
2023/04/03 13:46:01;;;;;;;;;;;4.90;99.90;;;;;;5072460;28;19927;-58
2023/04/03 13:48:34;;;;;;;;;;;4.90;99.90;;;;;;5072476;28;19920;-55
2023/04/03 13:51:03;;;;;;;;;;;5.00;99.90;;;;;;5051967;28;19924;-56
2023/04/03 13:53:30;;;;;;;;;;;5.00;99.90;;;;;;5072351;28;19975;-56
2023/04/03 13:56:03;;;;;;;;;;;5.10;99.90;;;;;;5070378;28;19994;-54
2023/04/03 13:58:30;;;;;;;;;;;5.10;99.90;;;;;;5068724;28;20339;-54
2023/04/03 14:01:09;;;;;;;;;;;5.10;99.90;;;;;;5071046;28;19924;-57
2023/04/03 14:03:56;;;;;;;;;;;5.20;99.90;;;;;;5072024;28;19927;-52
2023/04/03 14:06:23;;;;;;;;;;;5.20;99.90;;;;;;5061492;28;20362;-58
2023/04/03 14:08:50;;;;;;;;;;;5.20;99.90;;;;;;5072094;28;19966;-56
2023/04/03 14:11:23;;;;;;;;;;;5.20;99.90;;;;;;5072041;28;19986;-56
2023/04/03 14:13:50;;;;;;;;;;;5.30;99.90;;;;;;5070480;28;19924;-57
2023/04/03 14:16:21;;;;;;;;;;;5.30;99.90;;;;;;5071784;28;19927;-57
2023/04/03 14:18:49;;;;;;;;;;;5.30;99.90;;;;;;5071499;28;19946;-58
2023/04/03 14:21:16;;;;;;;;;;;5.30;99.90;;;;;;5069855;28;20393;-57
2023/04/03 14:23:43;;;;;;;;;;;5.30;99.90;;;;;;5071297;28;19924;-53
2023/04/03 14:26:16;;;;;;;;;;;5.30;99.90;;;;;;5062230;28;19921;-58
2023/04/03 14:28:43;;;;;;;;;;;5.30;99.90;;;;;;5072168;28;19970;-56
2023/04/03 14:31:11;;;;;;;;;;;5.20;99.90;;;;;;5071375;28;20037;-58